Time;durP1;ratioP1;P1;durP2;ratioP2;P2;SDS_P1;SDS_P2;PMS_P1;PMS_P2;Temp;Humidity;BMP_temperature;BMP_pressure;BME280_temperature;BME280_humidity;BME280_pressure;Samples;Min_cycle;Max_cycle;Signal;HPM_P1;HPM_P2
2023/04/18 00:01:21;;;;;;;15.95;10.38;;;11.60;99.90;;;;;;5133541;27;20138;-74
2023/04/18 00:03:50;;;;;;;12.10;8.98;;;11.60;99.90;;;;;;5151614;27;20106;-75
2023/04/18 00:06:15;;;;;;;20.00;12.05;;;11.60;99.90;;;;;;5152031;27;20026;-75
2023/04/18 00:08:41;;;;;;;15.70;10.95;;;11.50;99.90;;;;;;5151419;27;20023;-75
2023/04/18 00:11:07;;;;;;;19.55;10.95;;;11.60;99.90;;;;;;5151824;27;20169;-75
2023/04/18 00:13:32;;;;;;;17.55;10.85;;;11.60;99.90;;;;;;5151880;27;20026;-75
2023/04/18 00:15:58;;;;;;;18.38;11.27;;;11.60;99.90;;;;;;5151548;27;20039;-75
2023/04/18 00:18:25;;;;;;;18.40;11.20;;;11.50;99.90;;;;;;5152026;27;20026;-75
2023/04/18 00:20:52;;;;;;;20.65;11.80;;;11.50;99.90;;;;;;5151428;27;20115;-75
2023/04/18 00:23:20;;;;;;;15.13;10.88;;;11.60;99.90;;;;;;5151415;27;20277;-75
2023/04/18 00:25:46;;;;;;;20.20;12.85;;;11.60;99.90;;;;;;5151021;27;20055;-75
2023/04/18 00:28:12;;;;;;;19.65;12.27;;;11.60;99.90;;;;;;5151916;27;20035;-75
2023/04/18 00:30:38;;;;;;;23.60;12.35;;;11.50;99.90;;;;;;5151235;27;20386;-77
2023/04/18 00:33:04;;;;;;;24.95;12.90;;;11.60;99.90;;;;;;5132788;27;20034;-75
2023/04/18 00:35:30;;;;;;;23.90;13.77;;;11.60;99.90;;;;;;5153076;27;20037;-76
2023/04/18 00:37:57;;;;;;;24.10;13.20;;;11.50;99.90;;;;;;5155283;27;20056;-74
2023/04/18 00:40:23;;;;;;;25.23;13.68;;;11.40;99.90;;;;;;5155808;27;20030;-74
2023/04/18 00:42:49;;;;;;;23.92;14.52;;;11.40;99.90;;;;;;5155195;27;20060;-74
2023/04/18 00:45:14;;;;;;;28.00;14.55;;;11.30;99.90;;;;;;5155752;27;20391;-74
2023/04/18 00:47:40;;;;;;;24.65;14.85;;;11.20;99.90;;;;;;5155240;27;20069;-76
2023/04/18 00:50:07;;;;;;;26.73;15.32;;;11.30;99.90;;;;;;5155329;27;20023;-74
2023/04/18 00:52:34;;;;;;;29.55;16.08;;;11.40;99.90;;;;;;5155626;27;20328;-73
2023/04/18 00:55:05;;;;;;;34.65;18.08;;;11.40;99.90;;;;;;5154741;27;20043;-73
2023/04/18 00:57:31;;;;;;;31.75;17.05;;;11.40;99.90;;;;;;5155339;27;20031;-73
2023/04/18 00:59:59;;;;;;;36.38;20.02;;;11.40;99.90;;;;;;5136252;27;20027;-73
2023/04/18 01:02:27;;;;;;;44.20;22.52;;;11.30;99.90;;;;;;5155164;27;20026;-74
2023/04/18 01:04:52;;;;;;;42.00;21.50;;;11.30;99.90;;;;;;5154745;27;20019;-74
2023/04/18 01:07:18;;;;;;;40.22;20.30;;;11.20;99.90;;;;;;5155029;27;20042;-74
2023/04/18 01:09:44;;;;;;;44.15;23.58;;;11.20;99.90;;;;;;5154235;27;20034;-74
2023/04/18 01:12:10;;;;;;;46.67;24.38;;;11.20;99.90;;;;;;5155168;27;20023;-74
2023/04/18 01:14:39;;;;;;;45.88;23.92;;;11.20;99.90;;;;;;5154717;27;20018;-74
2023/04/18 01:17:09;;;;;;;44.92;24.00;;;11.20;99.90;;;;;;5154841;27;20071;-73
2023/04/18 01:19:38;;;;;;;47.35;25.50;;;11.20;99.90;;;;;;5155251;27;20023;-74
2023/04/18 01:22:05;;;;;;;52.35;25.95;;;11.20;99.90;;;;;;5153952;27;20436;-74
2023/04/18 01:24:32;;;;;;;49.08;25.55;;;11.30;99.90;;;;;;5154191;27;20129;-73
2023/04/18 01:26:58;;;;;;;43.53;23.52;;;11.30;99.90;;;;;;5154175;27;20526;-72
2023/04/18 01:29:24;;;;;;;37.83;20.67;;;11.30;99.90;;;;;;5154627;27;20459;-72
2023/04/18 01:31:50;;;;;;;40.97;21.60;;;11.20;99.90;;;;;;5153802;27;20026;-74
2023/04/18 01:34:19;;;;;;;40.92;22.20;;;11.20;99.90;;;;;;5154520;27;20076;-74
2023/04/18 01:36:45;;;;;;;43.63;22.88;;;11.20;99.90;;;;;;5154259;27;20079;-75
2023/04/18 01:39:12;;;;;;;40.47;21.88;;;11.30;99.90;;;;;;5154326;27;20015;-75
2023/04/18 01:41:38;;;;;;;47.40;23.50;;;11.20;99.90;;;;;;5154557;27;20023;-75
2023/04/18 01:44:04;;;;;;;40.10;23.05;;;11.20;99.90;;;;;;5135095;27;20451;-75
2023/04/18 01:46:30;;;;;;;40.72;22.27;;;11.20;99.90;;;;;;5153468;27;20379;-74
2023/04/18 01:48:56;;;;;;;46.72;23.70;;;11.20;99.90;;;;;;5153399;27;20027;-74
2023/04/18 01:51:22;;;;;;;47.78;22.85;;;11.20;99.90;;;;;;5154268;27;20083;-74
2023/04/18 01:53:48;;;;;;;50.10;23.92;;;11.20;99.90;;;;;;5153741;27;20431;-75
2023/04/18 01:56:14;;;;;;;53.28;24.73;;;11.20;99.90;;;;;;5154172;27;20033;-75
2023/04/18 01:58:40;;;;;;;51.47;22.02;;;11.20;99.90;;;;;;5154298;27;20018;-74
2023/04/18 02:01:06;;;;;;;46.22;22.30;;;11.10;99.90;;;;;;5135046;27;20084;-74
2023/04/18 02:03:32;;;;;;;49.67;22.50;;;11.10;99.90;;;;;;5154217;27;20034;-74
2023/04/18 02:05:58;;;;;;;50.03;23.55;;;11.00;99.90;;;;;;5153279;27;20061;-75
2023/04/18 02:08:24;;;;;;;54.15;23.60;;;11.00;99.90;;;;;;5154039;27;20031;-74
2023/04/18 02:10:50;;;;;;;50.80;24.10;;;11.10;99.90;;;;;;5153186;27;20071;-74
2023/04/18 02:13:15;;;;;;;53.25;23.50;;;11.10;99.90;;;;;;5154054;27;20393;-74
2023/04/18 02:15:44;;;;;;;53.30;25.42;;;11.20;99.90;;;;;;5153514;27;20023;-75
2023/04/18 02:18:10;;;;;;;54.40;26.13;;;11.20;99.90;;;;;;5134922;27;20045;-73
2023/04/18 02:20:36;;;;;;;54.95;25.80;;;11.10;99.90;;;;;;5153938;27;20389;-74
2023/04/18 02:23:03;;;;;;;58.10;26.40;;;11.10;99.90;;;;;;5153232;27;20033;-74
2023/04/18 02:25:29;;;;;;;56.47;26.13;;;11.10;99.90;;;;;;5134822;27;20131;-73
2023/04/18 02:27:56;;;;;;;57.38;26.50;;;11.20;99.90;;;;;;5153023;27;20110;-73
2023/04/18 02:30:22;;;;;;;68.80;27.33;;;11.10;99.90;;;;;;5153406;27;20400;-74
2023/04/18 02:32:51;;;;;;;61.42;27.27;;;11.10;99.90;;;;;;5153181;27;20031;-76
2023/04/18 02:35:20;;;;;;;62.15;27.55;;;11.10;99.90;;;;;;5153310;27;20042;-74
2023/04/18 02:37:46;;;;;;;63.50;27.10;;;11.10;99.90;;;;;;5153337;27;20053;-76
2023/04/18 02:40:12;;;;;;;60.85;26.58;;;11.00;99.90;;;;;;5152854;27;20084;-74
2023/04/18 02:42:38;;;;;;;60.95;27.58;;;11.10;99.90;;;;;;5153443;27;20030;-74
2023/04/18 02:45:04;;;;;;;65.68;27.17;;;11.10;99.90;;;;;;5134193;27;20039;-74
2023/04/18 02:47:30;;;;;;;68.82;27.45;;;11.00;99.90;;;;;;5153634;27;20049;-74
2023/04/18 02:49:56;;;;;;;61.33;26.27;;;11.00;99.90;;;;;;5152493;27;20468;-74
2023/04/18 02:52:22;;;;;;;70.45;30.00;;;11.00;99.90;;;;;;5153183;27;20117;-74
2023/04/18 02:54:47;;;;;;;69.93;27.48;;;11.10;99.90;;;;;;5152957;27;20420;-76
2023/04/18 02:57:13;;;;;;;80.15;29.92;;;11.10;99.90;;;;;;5152728;27;20034;-75
2023/04/18 02:59:39;;;;;;;66.25;27.98;;;11.10;99.90;;;;;;5152835;27;20068;-75
2023/04/18 03:02:05;;;;;;;82.75;29.95;;;11.10;99.90;;;;;;5152505;27;20080;-75
2023/04/18 03:04:30;;;;;;;81.13;29.95;;;11.10;99.90;;;;;;5134295;27;20026;-75
2023/04/18 03:06:58;;;;;;;74.28;30.73;;;11.20;99.90;;;;;;5152000;27;20095;-75
2023/04/18 03:09:24;;;;;;;83.15;32.75;;;11.10;99.90;;;;;;5152816;27;20031;-75
2023/04/18 03:11:50;;;;;;;81.00;32.28;;;11.10;99.90;;;;;;5152260;27;20437;-77
2023/04/18 03:14:16;;;;;;;77.30;30.48;;;11.20;99.90;;;;;;5153132;27;20118;-75
2023/04/18 03:16:42;;;;;;;78.60;31.15;;;11.10;99.90;;;;;;5152643;27;20406;-75
2023/04/18 03:19:08;;;;;;;85.10;33.63;;;11.20;99.90;;;;;;5152389;27;20027;-75
2023/04/18 03:21:33;;;;;;;81.95;33.50;;;11.10;99.90;;;;;;5152945;27;20046;-75
2023/04/18 03:23:59;;;;;;;86.22;31.33;;;11.20;99.90;;;;;;5152564;27;20046;-75
2023/04/18 03:26:25;;;;;;;83.95;33.92;;;11.10;99.90;;;;;;5152694;27;20464;-75
2023/04/18 03:28:51;;;;;;;75.43;32.28;;;11.10;99.90;;;;;;5133631;27;20026;-77
2023/04/18 03:31:17;;;;;;;86.15;32.20;;;11.10;99.90;;;;;;5152830;27;20023;-75
2023/04/18 03:33:44;;;;;;;86.05;33.55;;;11.20;99.90;;;;;;5153219;27;20139;-75
2023/04/18 03:36:16;;;;;;;72.35;31.42;;;11.10;99.90;;;;;;5151980;27;20102;-75
2023/04/18 03:38:42;;;;;;;72.88;31.02;;;11.10;99.90;;;;;;5152376;27;20026;-75
2023/04/18 03:41:08;;;;;;;69.97;31.15;;;11.20;99.90;;;;;;5151581;27;20026;-75
2023/04/18 03:43:34;;;;;;;85.18;34.13;;;11.10;99.90;;;;;;5152180;27;20022;-75
2023/04/18 03:46:00;;;;;;;87.35;33.15;;;11.20;99.90;;;;;;5151588;27;20045;-75
2023/04/18 03:48:25;;;;;;;79.70;32.25;;;11.20;99.90;;;;;;5152380;27;20487;-75
2023/04/18 03:50:51;;;;;;;85.00;33.40;;;11.20;99.90;;;;;;5152148;27;20493;-77
2023/04/18 03:53:17;;;;;;;93.30;33.75;;;11.20;99.90;;;;;;5151796;27;20294;-74
2023/04/18 03:55:42;;;;;;;91.32;32.55;;;11.20;99.90;;;;;;5152315;27;20022;-74
2023/04/18 03:58:08;;;;;;;82.70;31.63;;;11.20;99.90;;;;;;5150936;27;20471;-74
2023/04/18 04:00:34;;;;;;;84.53;32.40;;;11.20;99.90;;;;;;5151964;27;20050;-74
2023/04/18 04:03:00;;;;;;;87.35;32.42;;;11.10;99.90;;;;;;5151601;27;20023;-75
2023/04/18 04:05:26;;;;;;;79.60;31.05;;;11.10;99.90;;;;;;5133412;27;20026;-74
2023/04/18 04:07:52;;;;;;;76.32;31.27;;;11.20;99.90;;;;;;5151658;27;20076;-77
2023/04/18 04:10:18;;;;;;;83.43;33.50;;;11.20;99.90;;;;;;5152637;27;20471;-74
2023/04/18 04:12:45;;;;;;;85.25;34.30;;;11.20;99.90;;;;;;5155954;27;20109;-74
2023/04/18 04:15:11;;;;;;;78.18;32.00;;;11.10;99.90;;;;;;5155493;27;20026;-75
2023/04/18 04:17:36;;;;;;;72.07;29.45;;;11.10;99.90;;;;;;5156136;27;20164;-75
2023/04/18 04:20:02;;;;;;;74.07;30.88;;;11.10;99.90;;;;;;5155386;27;20022;-75
2023/04/18 04:22:28;;;;;;;77.60;31.63;;;11.10;99.90;;;;;;5156425;27;20034;-74
2023/04/18 04:24:56;;;;;;;81.30;31.42;;;11.10;99.90;;;;;;5155853;27;20336;-76
2023/04/18 04:27:23;;;;;;;66.85;29.00;;;11.10;99.90;;;;;;5156105;27;20171;-74
2023/04/18 04:29:51;;;;;;;76.68;31.63;;;11.10;99.90;;;;;;5156081;27;20026;-74
2023/04/18 04:32:17;;;;;;;75.65;30.52;;;11.10;99.90;;;;;;5155510;27;20023;-74
2023/04/18 04:34:45;;;;;;;73.82;28.88;;;11.10;99.90;;;;;;5137582;27;20094;-75
2023/04/18 04:37:13;;;;;;;69.97;29.77;;;11.00;99.90;;;;;;5154967;27;20031;-74
2023/04/18 04:39:39;;;;;;;65.80;28.67;;;11.00;99.90;;;;;;5155373;27;20026;-74
2023/04/18 04:42:05;;;;;;;70.90;29.30;;;11.00;99.90;;;;;;5154937;27;20068;-75
2023/04/18 04:44:31;;;;;;;71.10;30.08;;;11.00;99.90;;;;;;5143403;27;20023;-76
2023/04/18 04:46:57;;;;;;;65.38;27.08;;;11.00;99.90;;;;;;5134495;27;20037;-76
2023/04/18 04:49:23;;;;;;;66.78;28.35;;;11.00;99.90;;;;;;5134528;27;20115;-74
2023/04/18 04:51:48;;;;;;;63.47;26.83;;;11.00;99.90;;;;;;5134878;27;20430;-74
2023/04/18 04:54:14;;;;;;;67.07;28.73;;;10.90;99.90;;;;;;5134361;27;20015;-74
2023/04/18 04:56:40;;;;;;;67.22;29.50;;;10.90;99.90;;;;;;5135122;27;20050;-75
2023/04/18 04:59:06;;;;;;;64.38;26.33;;;10.90;99.90;;;;;;5133770;27;20027;-74
2023/04/18 05:01:32;;;;;;;68.97;27.52;;;10.90;99.90;;;;;;5134840;27;20089;-74
2023/04/18 05:03:58;;;;;;;66.68;27.45;;;10.90;99.90;;;;;;5134431;27;20027;-77
2023/04/18 05:06:23;;;;;;;62.63;26.02;;;10.90;99.90;;;;;;5134731;27;20376;-74
2023/04/18 05:08:49;;;;;;;71.25;27.70;;;10.90;99.90;;;;;;5134538;27;20041;-74
2023/04/18 05:11:16;;;;;;;63.40;27.85;;;10.90;99.90;;;;;;5134116;27;20019;-75
2023/04/18 05:13:42;;;;;;;70.57;29.23;;;10.80;99.90;;;;;;5134720;27;20050;-74
2023/04/18 05:16:08;;;;;;;68.40;30.02;;;10.90;99.90;;;;;;5134046;27;20479;-72
2023/04/18 05:18:37;;;;;;;67.07;28.35;;;10.80;99.90;;;;;;5134641;27;20035;-75
2023/04/18 05:21:04;;;;;;;59.63;28.67;;;10.90;99.90;;;;;;5133535;27;20031;-74
2023/04/18 05:23:30;;;;;;;68.70;28.77;;;10.80;99.90;;;;;;5134147;27;20050;-74
2023/04/18 05:25:56;;;;;;;68.97;29.25;;;10.90;99.90;;;;;;5133935;27;20085;-74
2023/04/18 05:28:25;;;;;;;64.40;28.17;;;10.90;99.90;;;;;;5133550;27;20080;-74
2023/04/18 05:30:51;;;;;;;67.03;28.73;;;10.90;99.90;;;;;;5133876;27;20122;-73
2023/04/18 05:33:17;;;;;;;70.47;29.38;;;11.00;99.90;;;;;;5133250;27;20083;-73
2023/04/18 05:35:42;;;;;;;64.57;27.90;;;11.00;99.90;;;;;;5115547;27;20109;-74
2023/04/18 05:38:08;;;;;;;65.20;28.40;;;10.90;99.90;;;;;;5133896;27;20042;-74
2023/04/18 05:40:34;;;;;;;69.70;29.27;;;10.90;99.90;;;;;;5134004;27;20031;-74
2023/04/18 05:43:00;;;;;;;70.55;28.20;;;10.90;99.90;;;;;;5134103;27;20392;-77
2023/04/18 05:45:25;;;;;;;68.78;27.75;;;10.80;99.90;;;;;;5133698;27;20040;-74
2023/04/18 05:47:52;;;;;;;70.68;28.63;;;10.80;99.90;;;;;;5133600;27;20106;-74
2023/04/18 05:50:18;;;;;;;74.05;29.60;;;10.80;99.90;;;;;;5133124;27;20324;-74
2023/04/18 05:52:44;;;;;;;70.07;29.38;;;10.80;99.90;;;;;;5133538;27;20176;-74
2023/04/18 05:55:10;;;;;;;60.17;28.08;;;10.80;99.90;;;;;;5133384;27;20023;-73
2023/04/18 05:57:36;;;;;;;64.40;28.40;;;10.80;99.90;;;;;;5134023;27;20032;-74
2023/04/18 06:00:06;;;;;;;66.18;28.58;;;10.90;99.90;;;;;;5133011;27;20083;-77
2023/04/18 06:02:32;;;;;;;63.63;28.88;;;10.90;99.90;;;;;;5133713;27;20023;-74
2023/04/18 06:04:58;;;;;;;60.70;27.63;;;11.00;99.90;;;;;;5133957;27;20037;-75
2023/04/18 06:07:24;;;;;;;63.92;29.20;;;11.10;99.90;;;;;;5133023;27;20376;-74
2023/04/18 06:09:50;;;;;;;59.55;27.98;;;11.10;99.90;;;;;;5133030;27;20037;-74
2023/04/18 06:12:15;;;;;;;61.92;29.35;;;11.10;99.90;;;;;;5132727;27;20019;-74
2023/04/18 06:14:41;;;;;;;60.00;28.83;;;11.20;99.90;;;;;;5133706;27;20076;-74
2023/04/18 06:17:08;;;;;;;66.15;30.92;;;11.20;99.90;;;;;;5133095;27;20448;-75
2023/04/18 06:19:34;;;;;;;60.22;28.55;;;11.20;99.90;;;;;;5133553;27;20022;-74
2023/04/18 06:22:00;;;;;;;71.93;28.45;;;11.20;99.90;;;;;;5133252;27;20110;-75
2023/04/18 06:24:26;;;;;;;58.67;27.77;;;11.10;99.90;;;;;;5132572;27;20095;-75
2023/04/18 06:26:53;;;;;;;58.92;28.92;;;11.10;99.90;;;;;;5133000;27;20043;-74
2023/04/18 06:29:19;;;;;;;63.90;28.58;;;11.20;99.90;;;;;;5113820;27;20019;-75
2023/04/18 06:31:47;;;;;;;60.50;26.58;;;11.20;99.90;;;;;;5132399;27;20043;-75
2023/04/18 06:34:13;;;;;;;59.13;28.08;;;11.20;99.90;;;;;;5131932;27;20459;-74
2023/04/18 06:36:38;;;;;;;57.10;29.13;;;11.20;99.90;;;;;;5132685;27;20046;-75
2023/04/18 06:39:04;;;;;;;56.60;29.20;;;11.20;99.90;;;;;;5132813;27;20027;-77
2023/04/18 06:41:30;;;;;;;63.90;28.58;;;11.20;99.90;;;;;;5132649;27;20019;-75
2023/04/18 06:43:56;;;;;;;56.42;28.25;;;11.20;99.90;;;;;;5132654;27;20103;-74
2023/04/18 06:46:22;;;;;;;59.92;29.42;;;11.20;99.90;;;;;;5131823;27;20039;-74
2023/04/18 06:48:48;;;;;;;56.00;30.20;;;11.20;99.90;;;;;;5132983;27;20122;-74
2023/04/18 06:51:14;;;;;;;51.00;29.25;;;11.20;99.90;;;;;;5131673;27;20034;-74
2023/04/18 06:53:40;;;;;;;59.30;29.48;;;11.20;99.90;;;;;;5132551;27;20019;-75
2023/04/18 06:56:06;;;;;;;56.92;29.35;;;11.20;99.90;;;;;;5131939;27;20024;-77
2023/04/18 06:58:31;;;;;;;53.33;27.20;;;11.40;99.90;;;;;;5132401;27;20043;-74
2023/04/18 07:00:57;;;;;;;58.00;30.30;;;11.40;99.90;;;;;;5131694;27;20023;-73
2023/04/18 07:03:23;;;;;;;55.53;29.20;;;11.50;99.90;;;;;;5131620;27;20094;-74
2023/04/18 07:05:49;;;;;;;59.25;29.38;;;11.50;99.90;;;;;;5132038;27;20039;-73
2023/04/18 07:08:15;;;;;;;49.47;26.92;;;11.60;99.90;;;;;;5131494;27;20053;-74
2023/04/18 07:10:41;;;;;;;52.53;28.17;;;11.70;99.90;;;;;;5132479;27;20027;-74
2023/04/18 07:13:07;;;;;;;46.60;28.45;;;11.70;99.90;;;;;;5132302;27;20058;-76
2023/04/18 07:15:34;;;;;;;47.70;29.80;;;11.80;99.90;;;;;;5132199;27;20074;-74
2023/04/18 07:18:00;;;;;;;47.97;29.15;;;11.90;99.90;;;;;;5132508;27;20046;-73
2023/04/18 07:20:26;;;;;;;48.08;29.27;;;11.80;99.90;;;;;;5112801;27;20015;-73
2023/04/18 07:22:51;;;;;;;44.28;28.42;;;11.90;99.90;;;;;;5131999;27;20106;-74
2023/04/18 07:25:18;;;;;;;42.65;25.80;;;11.90;99.90;;;;;;5136226;27;20130;-74
2023/04/18 07:27:43;;;;;;;44.08;28.08;;;11.90;99.90;;;;;;5122486;27;20110;-73
2023/04/18 07:30:09;;;;;;;41.75;27.20;;;11.90;99.90;;;;;;5143382;27;20163;-75
2023/04/18 07:32:35;;;;;;;49.47;26.23;;;11.90;99.90;;;;;;5152516;27;20042;-74
2023/04/18 07:35:02;;;;;;;37.63;25.65;;;11.90;99.90;;;;;;5133845;27;20019;-74
2023/04/18 07:37:28;;;;;;;38.63;26.60;;;11.90;99.90;;;;;;5151913;27;20045;-74
2023/04/18 07:39:53;;;;;;;37.08;26.17;;;12.00;99.90;;;;;;5152322;27;20027;-74
2023/04/18 07:42:19;;;;;;;37.17;26.98;;;12.00;99.90;;;;;;5151929;27;20054;-74
2023/04/18 07:44:45;;;;;;;40.50;26.80;;;11.90;99.90;;;;;;5151462;27;20019;-74
2023/04/18 07:47:11;;;;;;;35.25;25.60;;;12.10;99.90;;;;;;5151625;27;20106;-74
2023/04/18 07:49:37;;;;;;;39.65;25.80;;;12.10;99.90;;;;;;5151991;27;20105;-74
2023/04/18 07:52:03;;;;;;;35.97;24.88;;;12.10;99.90;;;;;;5151955;27;20040;-73
2023/04/18 07:54:29;;;;;;;38.10;25.17;;;12.10;99.90;;;;;;5151394;27;20019;-74
2023/04/18 07:56:55;;;;;;;37.55;24.33;;;12.00;99.90;;;;;;5133765;27;20030;-73
2023/04/18 07:59:21;;;;;;;35.40;21.98;;;12.10;99.90;;;;;;5151380;27;20022;-74
2023/04/18 08:01:47;;;;;;;34.90;23.85;;;12.00;99.90;;;;;;5152057;27;20094;-74
2023/04/18 08:04:13;;;;;;;37.22;24.95;;;12.10;99.90;;;;;;5151627;27;20015;-73
2023/04/18 08:06:39;;;;;;;56.78;25.92;;;12.20;99.90;;;;;;5133473;27;20458;-74
2023/04/18 08:09:05;;;;;;;36.22;24.15;;;12.40;99.90;;;;;;5152243;27;20077;-74
2023/04/18 08:11:33;;;;;;;39.60;22.95;;;12.40;99.90;;;;;;5151292;27;20027;-74
2023/04/18 08:13:58;;;;;;;45.65;24.55;;;12.40;99.90;;;;;;5152103;27;20107;-74
2023/04/18 08:16:24;;;;;;;41.38;21.50;;;12.40;99.90;;;;;;5151632;27;20475;-74
2023/04/18 08:18:50;;;;;;;36.67;24.05;;;12.30;99.90;;;;;;5152042;27;20030;-75
2023/04/18 08:21:18;;;;;;;34.42;22.90;;;12.50;99.90;;;;;;5151985;27;20368;-74
2023/04/18 08:23:43;;;;;;;36.28;22.90;;;12.60;99.90;;;;;;5152062;27;20047;-74
2023/04/18 08:26:09;;;;;;;34.75;24.00;;;12.80;99.90;;;;;;5151989;27;20037;-76
2023/04/18 08:28:35;;;;;;;39.47;22.05;;;12.60;99.90;;;;;;5133121;27;20033;-74
2023/04/18 08:31:01;;;;;;;39.60;23.20;;;12.60;99.90;;;;;;5151889;27;20027;-74
2023/04/18 08:33:27;;;;;;;36.40;22.52;;;12.80;99.90;;;;;;5151845;27;20109;-74
2023/04/18 08:35:53;;;;;;;62.00;25.90;;;12.70;99.90;;;;;;5152417;27;20026;-75
2023/04/18 08:38:19;;;;;;;55.50;25.63;;;12.70;99.90;;;;;;5151762;27;20125;-73
2023/04/18 08:40:45;;;;;;;40.10;21.80;;;12.70;99.90;;;;;;5152424;27;20393;-74
2023/04/18 08:43:13;;;;;;;40.72;24.08;;;12.70;99.90;;;;;;5151766;27;20027;-77
2023/04/18 08:45:43;;;;;;;43.97;25.02;;;12.60;99.90;;;;;;5152208;27;20061;-74
2023/04/18 08:48:13;;;;;;;44.55;25.65;;;12.70;99.90;;;;;;5133382;27;20190;-74
2023/04/18 08:50:40;;;;;;;44.00;25.17;;;12.70;99.90;;;;;;5151731;27;20027;-74
2023/04/18 08:53:06;;;;;;;123.07;33.72;;;12.80;99.90;;;;;;5152321;27;20054;-74
2023/04/18 08:55:34;;;;;;;53.13;25.95;;;12.90;99.90;;;;;;5151530;27;20097;-74
2023/04/18 08:58:01;;;;;;;41.40;24.40;;;12.90;99.90;;;;;;5156202;27;20023;-74
2023/04/18 09:00:28;;;;;;;47.17;25.45;;;13.00;99.90;;;;;;5155456;27;20078;-75
2023/04/18 09:02:55;;;;;;;46.25;26.58;;;12.90;99.90;;;;;;5150101;27;20031;-75
2023/04/18 09:05:23;;;;;;;49.78;27.15;;;12.80;99.90;;;;;;5122174;27;20439;-74
2023/04/18 09:07:52;;;;;;;45.00;26.10;;;12.70;99.90;;;;;;5152327;27;20459;-75
2023/04/18 09:10:27;;;;;;;48.05;27.00;;;12.60;99.90;;;;;;5155076;27;20510;-74
2023/04/18 09:12:54;;;;;;;54.05;30.20;;;12.60;99.90;;;;;;5155163;27;20022;-75
2023/04/18 09:15:22;;;;;;;49.40;27.33;;;12.30;99.90;;;;;;5153733;27;20072;-74
2023/04/18 09:17:51;;;;;;;50.10;27.80;;;12.40;99.90;;;;;;5155032;27;20027;-75
2023/04/18 09:20:29;;;;;;;52.35;28.60;;;12.60;99.90;;;;;;5154589;27;20058;-76
2023/04/18 09:22:56;;;;;;;50.15;26.52;;;12.80;99.90;;;;;;5155086;27;20151;-75
2023/04/18 09:25:41;;;;;;;52.78;28.33;;;12.90;99.90;;;;;;5154765;27;20130;-76
2023/04/18 09:28:33;;;;;;;49.55;28.92;;;13.00;99.90;;;;;;5155088;27;20030;-76
2023/04/18 09:31:13;;;;;;;42.90;27.05;;;12.90;99.90;;;;;;5150268;27;20510;-74
2023/04/18 09:33:45;;;;;;;40.25;26.00;;;12.90;99.90;;;;;;5155007;27;20184;-74
2023/04/18 09:36:21;;;;;;;35.53;22.23;;;12.80;99.90;;;;;;5154477;27;20031;-75
2023/04/18 09:38:48;;;;;;;40.67;25.60;;;12.60;99.90;;;;;;5154881;27;20159;-74
2023/04/18 09:41:17;;;;;;;36.40;24.58;;;12.60;99.90;;;;;;5154766;27;20031;-74
2023/04/18 09:43:46;;;;;;;43.67;25.15;;;12.80;99.90;;;;;;5154999;27;20095;-75
2023/04/18 09:46:12;;;;;;;38.47;23.85;;;12.90;99.90;;;;;;5155164;27;20132;-75
2023/04/18 09:48:39;;;;;;;37.35;24.50;;;13.00;99.90;;;;;;5155019;27;20026;-75
2023/04/18 09:51:12;;;;;;;43.53;24.15;;;13.10;99.90;;;;;;5155075;27;20122;-74
2023/04/18 09:53:40;;;;;;;40.38;24.67;;;13.10;99.90;;;;;;5154587;27;20042;-75
2023/04/18 09:56:25;;;;;;;42.58;25.23;;;13.00;99.90;;;;;;5155595;27;20042;-75
2023/04/18 09:58:59;;;;;;;37.75;23.33;;;13.20;99.90;;;;;;5154976;27;20103;-75
2023/04/18 10:01:27;;;;;;;32.83;23.15;;;13.00;99.90;;;;;;5154629;27;20035;-76
2023/04/18 10:03:55;;;;;;;35.63;22.48;;;13.00;99.90;;;;;;5154654;27;20455;-75
2023/04/18 10:06:22;;;;;;;35.53;21.60;;;12.90;99.90;;;;;;5154434;27;20037;-75
2023/04/18 10:08:50;;;;;;;86.38;28.33;;;12.90;99.90;;;;;;5153569;27;20031;-75
2023/04/18 10:11:17;;;;;;;37.67;22.75;;;12.90;99.90;;;;;;5154336;27;20026;-77
2023/04/18 10:13:46;;;;;;;30.02;20.67;;;13.00;99.90;;;;;;5153852;27;20082;-74
2023/04/18 10:16:13;;;;;;;35.00;21.13;;;13.00;99.90;;;;;;5154112;27;20030;-74
2023/04/18 10:18:41;;;;;;;39.13;24.27;;;12.90;99.90;;;;;;5153405;27;20031;-76
2023/04/18 10:21:08;;;;;;;35.65;24.15;;;12.90;99.90;;;;;;5153931;27;20022;-76
2023/04/18 10:23:39;;;;;;;28.27;17.85;;;12.80;99.90;;;;;;5153110;27;20078;-75
2023/04/18 10:26:06;;;;;;;37.15;23.60;;;12.60;99.90;;;;;;5153842;27;20083;-74
2023/04/18 10:28:53;;;;;;;30.55;19.75;;;12.50;99.90;;;;;;5153494;27;20027;-76
2023/04/18 10:31:21;;;;;;;34.63;19.10;;;12.50;99.90;;;;;;5153127;27;20399;-77
2023/04/18 10:34:07;;;;;;;28.50;18.40;;;12.60;99.90;;;;;;5153834;27;20023;-75
2023/04/18 10:36:33;;;;;;;33.90;19.33;;;12.70;99.90;;;;;;5153600;27;20030;-75
2023/04/18 10:39:03;;;;;;;35.28;20.45;;;12.80;99.90;;;;;;5135327;27;20026;-75
2023/04/18 10:41:31;;;;;;;32.95;17.85;;;13.00;99.90;;;;;;5153340;27;20106;-75
2023/04/18 10:44:06;;;;;;;33.22;18.10;;;13.00;99.90;;;;;;5153535;27;20071;-75
2023/04/18 10:46:39;;;;;;;28.00;17.95;;;12.80;99.90;;;;;;5153092;27;20062;-75
2023/04/18 10:49:24;;;;;;;25.42;17.65;;;12.90;99.90;;;;;;5153345;27;20383;-75
2023/04/18 10:51:54;;;;;;;25.75;17.33;;;12.80;99.90;;;;;;5153613;27;20048;-75
2023/04/18 10:54:48;;;;;;;29.08;16.90;;;12.60;99.90;;;;;;5154002;27;20071;-78
2023/04/18 10:57:14;;;;;;;26.50;16.80;;;12.70;99.90;;;;;;5154491;27;20029;-75
2023/04/18 10:59:49;;;;;;;26.75;15.40;;;12.70;99.90;;;;;;5154146;27;20023;-75
2023/04/18 11:02:30;;;;;;;30.63;17.77;;;12.70;99.90;;;;;;5154600;27;20022;-75
2023/04/18 11:04:59;;;;;;;25.30;16.65;;;12.80;99.90;;;;;;5154655;27;20155;-75
2023/04/18 11:07:38;;;;;;;27.50;15.15;;;12.80;99.90;;;;;;5153304;27;20060;-76
2023/04/18 11:10:06;;;;;;;28.85;15.60;;;12.80;99.90;;;;;;5154757;27;20050;-74
2023/04/18 11:12:34;;;;;;;23.80;15.65;;;12.80;99.90;;;;;;5153692;27;20038;-75
2023/04/18 11:15:02;;;;;;;25.88;14.23;;;12.80;99.90;;;;;;5154055;27;20026;-75
2023/04/18 11:17:34;;;;;;;26.40;14.52;;;12.90;99.90;;;;;;5153181;27;20062;-74
2023/04/18 11:20:14;;;;;;;28.13;14.32;;;12.90;99.90;;;;;;5135058;27;20023;-74
2023/04/18 11:22:45;;;;;;;22.40;14.38;;;12.80;99.90;;;;;;5153008;27;20463;-75
2023/04/18 11:25:11;;;;;;;24.10;13.88;;;12.60;99.90;;;;;;5153422;27;20149;-75
2023/04/18 11:27:39;;;;;;;26.50;14.63;;;12.40;99.90;;;;;;5153258;27;20106;-75
2023/04/18 11:30:06;;;;;;;24.50;13.98;;;12.40;99.90;;;;;;5153839;27;20065;-75
2023/04/18 11:32:33;;;;;;;28.00;13.32;;;12.30;99.90;;;;;;5153222;27;20058;-74
2023/04/18 11:35:00;;;;;;;30.25;14.40;;;12.40;99.90;;;;;;5134945;27;20026;-74
2023/04/18 11:37:25;;;;;;;25.05;13.65;;;12.20;99.90;;;;;;5134276;27;20066;-75
2023/04/18 11:39:54;;;;;;;26.83;13.65;;;12.20;99.90;;;;;;5153646;27;20543;-74
2023/04/18 11:42:26;;;;;;;25.20;13.82;;;12.10;99.90;;;;;;5135641;27;20166;-75
2023/04/18 11:44:51;;;;;;;20.55;12.75;;;12.00;99.90;;;;;;5153648;27;20419;-75
2023/04/18 11:47:28;;;;;;;27.60;13.50;;;12.20;99.90;;;;;;5153142;27;20026;-74
2023/04/18 11:50:08;;;;;;;24.00;13.32;;;12.30;99.90;;;;;;5153935;27;20026;-75
2023/04/18 11:52:34;;;;;;;22.40;13.40;;;12.30;99.90;;;;;;5152823;27;20106;-75
2023/04/18 11:55:17;;;;;;;21.85;13.20;;;12.30;99.90;;;;;;5153766;27;20027;-74
2023/04/18 11:57:53;;;;;;;;;;;12.30;99.90;;;;;;5153270;27;20113;-74
2023/04/18 12:00:33;;;;;;;31.25;13.55;;;12.30;99.90;;;;;;5153051;27;19908;-74
2023/04/18 12:03:00;;;;;;;28.73;13.23;;;12.40;99.90;;;;;;5153466;27;20102;-74
2023/04/18 12:05:35;;;;;;;23.02;13.15;;;12.50;99.90;;;;;;5152664;27;20105;-74
2023/04/18 12:08:10;;;;;;;20.80;12.98;;;12.40;99.90;;;;;;5153244;27;20065;-75
2023/04/18 12:10:45;;;;;;;20.48;11.95;;;12.20;99.90;;;;;;5152890;27;20054;-75
2023/04/18 12:13:11;;;;;;;22.35;13.95;;;12.20;99.90;;;;;;5134791;27;20023;-75
2023/04/18 12:15:39;;;;;;;24.85;13.75;;;12.40;99.90;;;;;;5152834;27;20034;-75
2023/04/18 12:18:07;;;;;;;22.17;13.77;;;12.60;99.90;;;;;;5153199;27;20102;-75
2023/04/18 12:20:49;;;;;;;23.77;13.45;;;12.80;99.90;;;;;;5152901;27;20031;-75
2023/04/18 12:23:34;;;;;;;23.58;13.27;;;13.00;99.90;;;;;;5153018;27;20038;-74
2023/04/18 12:26:22;;;;;;;22.63;12.93;;;13.10;99.90;;;;;;5152958;27;20493;-75
2023/04/18 12:28:52;;;;;;;22.58;13.77;;;13.30;99.90;;;;;;5152622;27;20022;-74
2023/04/18 12:31:20;;;;;;;22.38;11.80;;;13.50;99.90;;;;;;5154034;27;20344;-74